sensor_id;sensor_type;location;lat;lon;timestamp;temperature;humidity
24686;DHT22;12804;51.176;4.452;2022-09-09T00:00:24;15.00;99.90
24686;DHT22;12804;51.176;4.452;2022-09-09T00:03:01;14.90;99.90
24686;DHT22;12804;51.176;4.452;2022-09-09T00:06:04;14.80;99.90
24686;DHT22;12804;51.176;4.452;2022-09-09T00:11:43;14.70;99.90
24686;DHT22;12804;51.176;4.452;2022-09-09T00:14:38;14.60;99.90
24686;DHT22;12804;51.176;4.452;2022-09-09T00:17:14;14.60;99.90
24686;DHT22;12804;51.176;4.452;2022-09-09T00:22:29;14.50;99.90
24686;DHT22;12804;51.176;4.452;2022-09-09T00:25:56;14.40;99.90
24686;DHT22;12804;51.176;4.452;2022-09-09T00:28:04;14.40;99.90
24686;DHT22;12804;51.176;4.452;2022-09-09T00:30:37;14.30;99.90
24686;DHT22;12804;51.176;4.452;2022-09-09T00:33:11;14.30;99.90
24686;DHT22;12804;51.176;4.452;2022-09-09T00:35:45;14.40;99.90
24686;DHT22;12804;51.176;4.452;2022-09-09T00:38:37;14.50;99.90
24686;DHT22;12804;51.176;4.452;2022-09-09T00:46:50;14.60;99.90
24686;DHT22;12804;51.176;4.452;2022-09-09T00:52:23;14.50;99.90
24686;DHT22;12804;51.176;4.452;2022-09-09T00:55:19;14.50;99.90
24686;DHT22;12804;51.176;4.452;2022-09-09T00:57:46;14.50;99.90
24686;DHT22;12804;51.176;4.452;2022-09-09T01:00:25;14.60;99.90
24686;DHT22;12804;51.176;4.452;2022-09-09T01:11:24;14.70;99.90
24686;DHT22;12804;51.176;4.452;2022-09-09T01:28:42;14.70;99.90
24686;DHT22;12804;51.176;4.452;2022-09-09T01:31:16;14.60;99.90
24686;DHT22;12804;51.176;4.452;2022-09-09T01:33:46;14.70;99.90
24686;DHT22;12804;51.176;4.452;2022-09-09T01:36:35;14.60;99.90
24686;DHT22;12804;51.176;4.452;2022-09-09T01:39:04;14.60;99.90
24686;DHT22;12804;51.176;4.452;2022-09-09T01:41:32;14.50;99.90
24686;DHT22;12804;51.176;4.452;2022-09-09T01:44:08;14.50;99.90
24686;DHT22;12804;51.176;4.452;2022-09-09T01:46:36;14.50;99.90
24686;DHT22;12804;51.176;4.452;2022-09-09T01:49:05;14.40;99.90
24686;DHT22;12804;51.176;4.452;2022-09-09T01:51:31;14.40;99.90
24686;DHT22;12804;51.176;4.452;2022-09-09T01:54:02;14.50;99.90
24686;DHT22;12804;51.176;4.452;2022-09-09T01:59:41;14.50;99.90
24686;DHT22;12804;51.176;4.452;2022-09-09T02:02:30;14.50;99.90
24686;DHT22;12804;51.176;4.452;2022-09-09T02:05:37;14.50;99.90
24686;DHT22;12804;51.176;4.452;2022-09-09T02:08:11;14.40;99.90
24686;DHT22;12804;51.176;4.452;2022-09-09T02:13:47;14.40;99.90
24686;DHT22;12804;51.176;4.452;2022-09-09T02:18:55;14.50;99.90
24686;DHT22;12804;51.176;4.452;2022-09-09T02:21:32;14.60;99.90
24686;DHT22;12804;51.176;4.452;2022-09-09T02:24:03;14.60;99.90
24686;DHT22;12804;51.176;4.452;2022-09-09T02:26:34;14.50;99.90
24686;DHT22;12804;51.176;4.452;2022-09-09T02:29:05;14.40;99.90
24686;DHT22;12804;51.176;4.452;2022-09-09T02:31:33;14.50;99.90
24686;DHT22;12804;51.176;4.452;2022-09-09T02:34:05;14.50;99.90
24686;DHT22;12804;51.176;4.452;2022-09-09T02:36:35;14.50;99.90
24686;DHT22;12804;51.176;4.452;2022-09-09T02:39:01;14.40;99.90
24686;DHT22;12804;51.176;4.452;2022-09-09T02:41:34;14.30;99.90
24686;DHT22;12804;51.176;4.452;2022-09-09T02:44:01;14.30;99.90
24686;DHT22;12804;51.176;4.452;2022-09-09T02:49:28;14.40;99.90
24686;DHT22;12804;51.176;4.452;2022-09-09T02:52:05;14.40;99.90
24686;DHT22;12804;51.176;4.452;2022-09-09T02:54:37;14.40;99.90
24686;DHT22;12804;51.176;4.452;2022-09-09T02:59:39;14.40;99.90
24686;DHT22;12804;51.176;4.452;2022-09-09T03:02:05;14.40;99.90
24686;DHT22;12804;51.176;4.452;2022-09-09T03:04:32;14.50;99.90
24686;DHT22;12804;51.176;4.452;2022-09-09T03:06:58;14.50;99.90
24686;DHT22;12804;51.176;4.452;2022-09-09T03:09:24;14.50;99.90
24686;DHT22;12804;51.176;4.452;2022-09-09T03:11:52;14.50;99.90
24686;DHT22;12804;51.176;4.452;2022-09-09T03:14:19;14.50;99.90
24686;DHT22;12804;51.176;4.452;2022-09-09T03:16:47;14.40;99.90
24686;DHT22;12804;51.176;4.452;2022-09-09T03:19:14;14.40;99.90
24686;DHT22;12804;51.176;4.452;2022-09-09T03:21:40;14.40;99.90
24686;DHT22;12804;51.176;4.452;2022-09-09T03:24:06;14.40;99.90
24686;DHT22;12804;51.176;4.452;2022-09-09T03:26:33;14.40;99.90
24686;DHT22;12804;51.176;4.452;2022-09-09T03:28:59;14.50;99.90
24686;DHT22;12804;51.176;4.452;2022-09-09T03:31:27;14.50;99.90
24686;DHT22;12804;51.176;4.452;2022-09-09T03:33:57;14.40;99.90
24686;DHT22;12804;51.176;4.452;2022-09-09T03:36:25;14.40;99.90
24686;DHT22;12804;51.176;4.452;2022-09-09T03:38:52;14.40;99.90
24686;DHT22;12804;51.176;4.452;2022-09-09T03:41:22;14.40;99.90
24686;DHT22;12804;51.176;4.452;2022-09-09T03:43:53;14.40;99.90
24686;DHT22;12804;51.176;4.452;2022-09-09T03:46:24;14.40;99.90
24686;DHT22;12804;51.176;4.452;2022-09-09T03:48:51;14.40;99.90
24686;DHT22;12804;51.176;4.452;2022-09-09T03:51:18;14.50;99.90
24686;DHT22;12804;51.176;4.452;2022-09-09T03:53:45;14.50;99.90
24686;DHT22;12804;51.176;4.452;2022-09-09T03:56:11;14.50;99.90
24686;DHT22;12804;51.176;4.452;2022-09-09T03:58:38;14.50;99.90
24686;DHT22;12804;51.176;4.452;2022-09-09T04:01:09;14.60;99.90
24686;DHT22;12804;51.176;4.452;2022-09-09T04:03:36;14.60;99.90
24686;DHT22;12804;51.176;4.452;2022-09-09T04:06:03;14.70;99.90
24686;DHT22;12804;51.176;4.452;2022-09-09T04:08:31;14.70;99.90
24686;DHT22;12804;51.176;4.452;2022-09-09T04:10:58;14.70;99.90
24686;DHT22;12804;51.176;4.452;2022-09-09T04:13:25;14.70;99.90
24686;DHT22;12804;51.176;4.452;2022-09-09T04:15:57;14.70;99.90
24686;DHT22;12804;51.176;4.452;2022-09-09T04:18:23;14.70;99.90
24686;DHT22;12804;51.176;4.452;2022-09-09T04:20:49;14.80;99.90
24686;DHT22;12804;51.176;4.452;2022-09-09T04:23:19;14.80;99.90
24686;DHT22;12804;51.176;4.452;2022-09-09T04:25:47;14.80;99.90
24686;DHT22;12804;51.176;4.452;2022-09-09T04:28:14;14.90;99.90
24686;DHT22;12804;51.176;4.452;2022-09-09T04:30:41;14.80;99.90
24686;DHT22;12804;51.176;4.452;2022-09-09T04:33:08;14.80;99.90
24686;DHT22;12804;51.176;4.452;2022-09-09T04:35:36;14.80;99.90
24686;DHT22;12804;51.176;4.452;2022-09-09T04:38:02;14.80;99.90
24686;DHT22;12804;51.176;4.452;2022-09-09T04:40:30;14.70;99.90
24686;DHT22;12804;51.176;4.452;2022-09-09T04:43:01;14.70;99.90
24686;DHT22;12804;51.176;4.452;2022-09-09T04:45:27;14.70;99.90
24686;DHT22;12804;51.176;4.452;2022-09-09T04:47:53;14.70;99.90
24686;DHT22;12804;51.176;4.452;2022-09-09T04:50:20;14.70;99.90
24686;DHT22;12804;51.176;4.452;2022-09-09T04:52:46;14.70;99.90
24686;DHT22;12804;51.176;4.452;2022-09-09T04:55:13;14.80;99.90
24686;DHT22;12804;51.176;4.452;2022-09-09T04:57:43;14.80;99.90
24686;DHT22;12804;51.176;4.452;2022-09-09T05:00:11;14.70;99.90
24686;DHT22;12804;51.176;4.452;2022-09-09T05:02:40;14.80;99.90
24686;DHT22;12804;51.176;4.452;2022-09-09T05:05:08;14.80;99.90
24686;DHT22;12804;51.176;4.452;2022-09-09T05:07:34;14.80;99.90
24686;DHT22;12804;51.176;4.452;2022-09-09T05:10:00;14.80;99.90
24686;DHT22;12804;51.176;4.452;2022-09-09T05:12:26;14.80;99.90
24686;DHT22;12804;51.176;4.452;2022-09-09T05:14:52;14.80;99.90
24686;DHT22;12804;51.176;4.452;2022-09-09T05:17:18;14.80;99.90
24686;DHT22;12804;51.176;4.452;2022-09-09T05:19:44;14.80;99.90
24686;DHT22;12804;51.176;4.452;2022-09-09T05:22:11;14.80;99.90
24686;DHT22;12804;51.176;4.452;2022-09-09T05:24:42;14.80;99.90
24686;DHT22;12804;51.176;4.452;2022-09-09T05:27:09;14.90;99.90
24686;DHT22;12804;51.176;4.452;2022-09-09T05:29:38;14.90;99.90
24686;DHT22;12804;51.176;4.452;2022-09-09T05:32:07;15.00;99.90
24686;DHT22;12804;51.176;4.452;2022-09-09T05:34:35;15.00;99.90
24686;DHT22;12804;51.176;4.452;2022-09-09T05:37:03;15.10;99.90
24686;DHT22;12804;51.176;4.452;2022-09-09T05:39:31;15.10;99.90
24686;DHT22;12804;51.176;4.452;2022-09-09T05:41:58;15.10;99.90
24686;DHT22;12804;51.176;4.452;2022-09-09T05:44:24;15.10;99.90
24686;DHT22;12804;51.176;4.452;2022-09-09T05:46:53;15.10;99.90
24686;DHT22;12804;51.176;4.452;2022-09-09T05:49:21;15.30;99.90
24686;DHT22;12804;51.176;4.452;2022-09-09T05:51:47;15.40;99.90
24686;DHT22;12804;51.176;4.452;2022-09-09T05:54:16;15.60;99.90
24686;DHT22;12804;51.176;4.452;2022-09-09T05:56:46;15.60;99.90
24686;DHT22;12804;51.176;4.452;2022-09-09T05:59:15;15.70;99.90
24686;DHT22;12804;51.176;4.452;2022-09-09T06:01:41;15.80;99.90
24686;DHT22;12804;51.176;4.452;2022-09-09T06:04:13;15.70;99.90
24686;DHT22;12804;51.176;4.452;2022-09-09T06:06:40;15.70;99.90
24686;DHT22;12804;51.176;4.452;2022-09-09T06:09:16;15.70;99.90
24686;DHT22;12804;51.176;4.452;2022-09-09T06:11:43;15.60;99.90
24686;DHT22;12804;51.176;4.452;2022-09-09T06:14:10;15.60;99.90
24686;DHT22;12804;51.176;4.452;2022-09-09T06:16:37;15.80;99.90
24686;DHT22;12804;51.176;4.452;2022-09-09T06:19:05;15.70;99.90
24686;DHT22;12804;51.176;4.452;2022-09-09T06:21:37;15.60;99.90
24686;DHT22;12804;51.176;4.452;2022-09-09T06:24:05;15.60;99.90
24686;DHT22;12804;51.176;4.452;2022-09-09T06:26:34;15.60;99.90
24686;DHT22;12804;51.176;4.452;2022-09-09T06:29:03;15.60;99.90
24686;DHT22;12804;51.176;4.452;2022-09-09T06:31:31;15.90;99.90
24686;DHT22;12804;51.176;4.452;2022-09-09T06:34:07;15.90;99.90
24686;DHT22;12804;51.176;4.452;2022-09-09T06:36:37;16.00;99.90
24686;DHT22;12804;51.176;4.452;2022-09-09T06:39:04;16.10;99.90
24686;DHT22;12804;51.176;4.452;2022-09-09T06:41:32;15.90;99.90
24686;DHT22;12804;51.176;4.452;2022-09-09T06:43:59;15.90;99.90
24686;DHT22;12804;51.176;4.452;2022-09-09T06:46:39;15.90;99.90
24686;DHT22;12804;51.176;4.452;2022-09-09T06:49:05;16.00;99.90
24686;DHT22;12804;51.176;4.452;2022-09-09T06:51:37;15.90;99.90
24686;DHT22;12804;51.176;4.452;2022-09-09T06:54:10;15.90;99.90
24686;DHT22;12804;51.176;4.452;2022-09-09T06:56:41;15.90;99.90
24686;DHT22;12804;51.176;4.452;2022-09-09T06:59:12;16.00;99.90
24686;DHT22;12804;51.176;4.452;2022-09-09T07:01:41;16.20;99.90
24686;DHT22;12804;51.176;4.452;2022-09-09T07:04:10;16.10;99.90
24686;DHT22;12804;51.176;4.452;2022-09-09T07:06:41;16.10;99.90
24686;DHT22;12804;51.176;4.452;2022-09-09T07:09:12;16.10;99.90
24686;DHT22;12804;51.176;4.452;2022-09-09T07:11:42;16.20;99.90
24686;DHT22;12804;51.176;4.452;2022-09-09T07:14:10;16.10;99.90
24686;DHT22;12804;51.176;4.452;2022-09-09T07:16:39;16.30;99.90
24686;DHT22;12804;51.176;4.452;2022-09-09T07:19:05;16.40;99.90
24686;DHT22;12804;51.176;4.452;2022-09-09T07:21:32;16.50;99.90
24686;DHT22;12804;51.176;4.452;2022-09-09T07:23:59;16.50;99.90
24686;DHT22;12804;51.176;4.452;2022-09-09T07:26:27;16.50;99.90
24686;DHT22;12804;51.176;4.452;2022-09-09T07:28:55;16.40;99.90
24686;DHT22;12804;51.176;4.452;2022-09-09T07:31:27;16.40;99.90
24686;DHT22;12804;51.176;4.452;2022-09-09T07:33:55;16.60;99.90
24686;DHT22;12804;51.176;4.452;2022-09-09T07:36:26;16.50;99.90
24686;DHT22;12804;51.176;4.452;2022-09-09T07:38:56;16.60;99.90
24686;DHT22;12804;51.176;4.452;2022-09-09T07:41:31;16.70;99.90
24686;DHT22;12804;51.176;4.452;2022-09-09T07:44:04;16.50;99.90
24686;DHT22;12804;51.176;4.452;2022-09-09T07:46:31;16.60;99.90
24686;DHT22;12804;51.176;4.452;2022-09-09T07:48:57;16.60;99.90
24686;DHT22;12804;51.176;4.452;2022-09-09T07:51:29;16.60;99.90
24686;DHT22;12804;51.176;4.452;2022-09-09T07:53:58;16.50;99.90
24686;DHT22;12804;51.176;4.452;2022-09-09T07:56:26;16.50;99.90
24686;DHT22;12804;51.176;4.452;2022-09-09T07:58:54;16.60;99.90
24686;DHT22;12804;51.176;4.452;2022-09-09T08:01:41;16.60;99.90
24686;DHT22;12804;51.176;4.452;2022-09-09T08:04:10;16.70;99.90
24686;DHT22;12804;51.176;4.452;2022-09-09T08:06:52;16.70;99.90
24686;DHT22;12804;51.176;4.452;2022-09-09T08:09:20;16.60;99.90
24686;DHT22;12804;51.176;4.452;2022-09-09T08:11:48;16.60;99.90
24686;DHT22;12804;51.176;4.452;2022-09-09T08:14:16;16.70;99.90
24686;DHT22;12804;51.176;4.452;2022-09-09T08:16:45;16.70;99.90
24686;DHT22;12804;51.176;4.452;2022-09-09T08:19:14;16.80;99.90
24686;DHT22;12804;51.176;4.452;2022-09-09T08:21:44;16.80;99.90
24686;DHT22;12804;51.176;4.452;2022-09-09T08:24:12;16.70;99.90
24686;DHT22;12804;51.176;4.452;2022-09-09T08:26:42;16.70;99.90
24686;DHT22;12804;51.176;4.452;2022-09-09T08:29:11;16.60;99.90
24686;DHT22;12804;51.176;4.452;2022-09-09T08:31:42;16.70;99.90
24686;DHT22;12804;51.176;4.452;2022-09-09T08:34:08;16.70;99.90
24686;DHT22;12804;51.176;4.452;2022-09-09T08:36:39;16.70;99.90
24686;DHT22;12804;51.176;4.452;2022-09-09T08:39:07;16.80;99.90
24686;DHT22;12804;51.176;4.452;2022-09-09T08:42:13;16.90;99.90
24686;DHT22;12804;51.176;4.452;2022-09-09T08:45:33;17.00;99.90
24686;DHT22;12804;51.176;4.452;2022-09-09T08:48:15;17.00;99.90
24686;DHT22;12804;51.176;4.452;2022-09-09T08:50:43;16.90;99.90
24686;DHT22;12804;51.176;4.452;2022-09-09T08:53:28;16.90;99.90
24686;DHT22;12804;51.176;4.452;2022-09-09T08:56:18;17.00;99.90
24686;DHT22;12804;51.176;4.452;2022-09-09T08:58:55;17.10;99.90
24686;DHT22;12804;51.176;4.452;2022-09-09T09:04:39;16.90;99.90
24686;DHT22;12804;51.176;4.452;2022-09-09T09:12:21;16.90;99.90
24686;DHT22;12804;51.176;4.452;2022-09-09T09:14:49;16.70;99.90
24686;DHT22;12804;51.176;4.452;2022-09-09T09:17:18;16.60;99.90
24686;DHT22;12804;51.176;4.452;2022-09-09T09:19:46;16.50;99.90
24686;DHT22;12804;51.176;4.452;2022-09-09T09:27:49;16.40;99.90
24686;DHT22;12804;51.176;4.452;2022-09-09T09:30:26;16.30;99.90
24686;DHT22;12804;51.176;4.452;2022-09-09T09:33:00;16.30;99.90
24686;DHT22;12804;51.176;4.452;2022-09-09T09:35:28;16.20;99.90
24686;DHT22;12804;51.176;4.452;2022-09-09T09:37:53;16.20;99.90
24686;DHT22;12804;51.176;4.452;2022-09-09T09:40:21;16.20;99.90
24686;DHT22;12804;51.176;4.452;2022-09-09T09:42:53;16.30;99.90
24686;DHT22;12804;51.176;4.452;2022-09-09T09:48:02;16.30;99.90
24686;DHT22;12804;51.176;4.452;2022-09-09T09:50:31;16.30;99.90
24686;DHT22;12804;51.176;4.452;2022-09-09T09:53:01;16.30;99.90
24686;DHT22;12804;51.176;4.452;2022-09-09T09:55:30;16.30;99.90
24686;DHT22;12804;51.176;4.452;2022-09-09T09:58:05;16.40;99.90
24686;DHT22;12804;51.176;4.452;2022-09-09T10:00:31;16.40;99.90
24686;DHT22;12804;51.176;4.452;2022-09-09T10:03:12;16.40;99.90
24686;DHT22;12804;51.176;4.452;2022-09-09T10:05:47;16.50;99.90
24686;DHT22;12804;51.176;4.452;2022-09-09T10:08:16;16.50;99.90
24686;DHT22;12804;51.176;4.452;2022-09-09T10:24:22;16.70;99.90
24686;DHT22;12804;51.176;4.452;2022-09-09T10:30:05;16.90;99.90
24686;DHT22;12804;51.176;4.452;2022-09-09T10:52:38;17.50;99.90
24686;DHT22;12804;51.176;4.452;2022-09-09T10:57:48;17.40;99.90
24686;DHT22;12804;51.176;4.452;2022-09-09T11:00:24;17.50;99.90
24686;DHT22;12804;51.176;4.452;2022-09-09T11:03:00;17.60;99.90
24686;DHT22;12804;51.176;4.452;2022-09-09T11:08:06;17.40;99.90
24686;DHT22;12804;51.176;4.452;2022-09-09T11:10:58;17.40;99.90
24686;DHT22;12804;51.176;4.452;2022-09-09T11:13:29;17.60;99.90
24686;DHT22;12804;51.176;4.452;2022-09-09T11:18:39;17.80;99.90
24686;DHT22;12804;51.176;4.452;2022-09-09T11:21:16;18.00;99.90
24686;DHT22;12804;51.176;4.452;2022-09-09T11:23:48;18.40;99.90
24686;DHT22;12804;51.176;4.452;2022-09-09T11:26:21;18.30;99.90
24686;DHT22;12804;51.176;4.452;2022-09-09T11:40:33;18.70;99.90
24686;DHT22;12804;51.176;4.452;2022-09-09T11:43:13;18.70;99.90
24686;DHT22;12804;51.176;4.452;2022-09-09T11:45:41;18.70;99.90
24686;DHT22;12804;51.176;4.452;2022-09-09T11:48:25;18.70;99.90
24686;DHT22;12804;51.176;4.452;2022-09-09T11:53:59;18.60;99.90
24686;DHT22;12804;51.176;4.452;2022-09-09T11:56:44;19.00;99.90
24686;DHT22;12804;51.176;4.452;2022-09-09T11:59:30;18.90;99.90
24686;DHT22;12804;51.176;4.452;2022-09-09T12:02:13;18.80;99.90
24686;DHT22;12804;51.176;4.452;2022-09-09T12:05:00;19.00;99.90
24686;DHT22;12804;51.176;4.452;2022-09-09T12:07:32;19.30;99.90
24686;DHT22;12804;51.176;4.452;2022-09-09T12:12:36;19.50;99.90
24686;DHT22;12804;51.176;4.452;2022-09-09T12:17:30;19.60;99.90
24686;DHT22;12804;51.176;4.452;2022-09-09T12:34:17;19.90;99.90
24686;DHT22;12804;51.176;4.452;2022-09-09T12:36:47;20.30;99.90
24686;DHT22;12804;51.176;4.452;2022-09-09T12:39:27;20.10;99.90
24686;DHT22;12804;51.176;4.452;2022-09-09T12:41:55;19.70;99.90
24686;DHT22;12804;51.176;4.452;2022-09-09T12:44:23;19.70;99.90
24686;DHT22;12804;51.176;4.452;2022-09-09T12:46:51;19.40;99.90
24686;DHT22;12804;51.176;4.452;2022-09-09T12:49:30;19.40;99.90
24686;DHT22;12804;51.176;4.452;2022-09-09T12:52:03;19.30;99.90
24686;DHT22;12804;51.176;4.452;2022-09-09T12:54:33;19.00;99.90
24686;DHT22;12804;51.176;4.452;2022-09-09T12:57:00;19.10;99.90
24686;DHT22;12804;51.176;4.452;2022-09-09T12:59:38;19.60;99.90
24686;DHT22;12804;51.176;4.452;2022-09-09T13:02:26;19.90;99.90
24686;DHT22;12804;51.176;4.452;2022-09-09T13:04:53;19.90;99.90
24686;DHT22;12804;51.176;4.452;2022-09-09T13:07:20;20.40;99.90
24686;DHT22;12804;51.176;4.452;2022-09-09T13:09:48;21.20;99.90
24686;DHT22;12804;51.176;4.452;2022-09-09T13:12:23;20.90;99.90
24686;DHT22;12804;51.176;4.452;2022-09-09T13:14:55;21.20;99.90
24686;DHT22;12804;51.176;4.452;2022-09-09T13:17:26;21.00;99.90
24686;DHT22;12804;51.176;4.452;2022-09-09T13:19:54;21.00;99.90
24686;DHT22;12804;51.176;4.452;2022-09-09T13:22:30;21.20;99.90
24686;DHT22;12804;51.176;4.452;2022-09-09T13:27:30;20.40;99.90
24686;DHT22;12804;51.176;4.452;2022-09-09T13:29:56;20.70;99.90
24686;DHT22;12804;51.176;4.452;2022-09-09T13:32:22;21.00;99.90
24686;DHT22;12804;51.176;4.452;2022-09-09T13:34:52;21.40;99.90
24686;DHT22;12804;51.176;4.452;2022-09-09T13:37:32;22.80;99.90
24686;DHT22;12804;51.176;4.452;2022-09-09T13:39:59;23.20;99.90
24686;DHT22;12804;51.176;4.452;2022-09-09T13:42:26;23.10;99.90
24686;DHT22;12804;51.176;4.452;2022-09-09T13:44:52;22.70;99.90
24686;DHT22;12804;51.176;4.452;2022-09-09T13:47:19;22.00;99.90
24686;DHT22;12804;51.176;4.452;2022-09-09T13:49:45;21.90;99.90
24686;DHT22;12804;51.176;4.452;2022-09-09T13:52:12;21.80;99.90
24686;DHT22;12804;51.176;4.452;2022-09-09T13:54:39;21.40;99.90
24686;DHT22;12804;51.176;4.452;2022-09-09T13:57:05;21.50;99.90
24686;DHT22;12804;51.176;4.452;2022-09-09T13:59:31;21.90;99.90
24686;DHT22;12804;51.176;4.452;2022-09-09T14:01:57;22.50;99.90
24686;DHT22;12804;51.176;4.452;2022-09-09T14:04:23;22.00;99.90
24686;DHT22;12804;51.176;4.452;2022-09-09T14:06:49;21.70;99.90
24686;DHT22;12804;51.176;4.452;2022-09-09T14:09:15;21.50;99.90
24686;DHT22;12804;51.176;4.452;2022-09-09T14:11:42;21.20;99.90
24686;DHT22;12804;51.176;4.452;2022-09-09T14:14:08;20.70;99.90
24686;DHT22;12804;51.176;4.452;2022-09-09T14:16:34;20.60;99.90
24686;DHT22;12804;51.176;4.452;2022-09-09T14:18:59;20.90;99.90
24686;DHT22;12804;51.176;4.452;2022-09-09T14:21:25;21.30;99.90
24686;DHT22;12804;51.176;4.452;2022-09-09T14:23:51;21.40;99.90
24686;DHT22;12804;51.176;4.452;2022-09-09T14:26:18;21.80;99.90
24686;DHT22;12804;51.176;4.452;2022-09-09T14:28:46;22.20;99.90
24686;DHT22;12804;51.176;4.452;2022-09-09T14:31:12;22.80;99.90
24686;DHT22;12804;51.176;4.452;2022-09-09T14:33:39;22.60;99.90
24686;DHT22;12804;51.176;4.452;2022-09-09T14:36:04;21.80;99.90
24686;DHT22;12804;51.176;4.452;2022-09-09T14:38:31;21.20;99.90
24686;DHT22;12804;51.176;4.452;2022-09-09T14:40:59;20.80;99.90
24686;DHT22;12804;51.176;4.452;2022-09-09T14:43:25;20.50;99.90
24686;DHT22;12804;51.176;4.452;2022-09-09T14:45:51;20.60;99.90
24686;DHT22;12804;51.176;4.452;2022-09-09T14:48:17;21.00;99.90
24686;DHT22;12804;51.176;4.452;2022-09-09T14:50:43;21.20;99.90
24686;DHT22;12804;51.176;4.452;2022-09-09T14:53:08;21.90;99.90
24686;DHT22;12804;51.176;4.452;2022-09-09T14:55:35;22.00;99.90
24686;DHT22;12804;51.176;4.452;2022-09-09T14:58:01;21.80;99.90
24686;DHT22;12804;51.176;4.452;2022-09-09T15:00:27;21.20;99.90
24686;DHT22;12804;51.176;4.452;2022-09-09T15:02:53;21.00;99.90
24686;DHT22;12804;51.176;4.452;2022-09-09T15:05:19;21.10;99.90
24686;DHT22;12804;51.176;4.452;2022-09-09T15:07:45;21.00;99.90
24686;DHT22;12804;51.176;4.452;2022-09-09T15:10:10;21.00;99.90
24686;DHT22;12804;51.176;4.452;2022-09-09T15:12:36;20.90;99.90
24686;DHT22;12804;51.176;4.452;2022-09-09T15:15:04;21.00;99.90
24686;DHT22;12804;51.176;4.452;2022-09-09T15:17:30;20.70;99.90
24686;DHT22;12804;51.176;4.452;2022-09-09T15:19:56;20.70;99.90
24686;DHT22;12804;51.176;4.452;2022-09-09T15:22:22;20.50;99.90
24686;DHT22;12804;51.176;4.452;2022-09-09T15:24:47;20.50;99.90
24686;DHT22;12804;51.176;4.452;2022-09-09T15:27:13;20.20;99.90
24686;DHT22;12804;51.176;4.452;2022-09-09T15:29:40;20.40;99.90
24686;DHT22;12804;51.176;4.452;2022-09-09T15:32:06;20.80;99.90
24686;DHT22;12804;51.176;4.452;2022-09-09T15:34:31;21.30;99.90
24686;DHT22;12804;51.176;4.452;2022-09-09T15:36:57;22.90;99.90
24686;DHT22;12804;51.176;4.452;2022-09-09T15:39:25;23.90;99.90
24686;DHT22;12804;51.176;4.452;2022-09-09T15:41:51;23.40;99.90
24686;DHT22;12804;51.176;4.452;2022-09-09T15:44:17;22.90;99.90
24686;DHT22;12804;51.176;4.452;2022-09-09T15:46:45;22.00;99.90
24686;DHT22;12804;51.176;4.452;2022-09-09T15:49:15;21.30;99.90
24686;DHT22;12804;51.176;4.452;2022-09-09T15:51:42;21.30;99.90
24686;DHT22;12804;51.176;4.452;2022-09-09T15:54:08;21.10;99.90
24686;DHT22;12804;51.176;4.452;2022-09-09T15:56:34;21.10;99.90
24686;DHT22;12804;51.176;4.452;2022-09-09T15:59:00;21.10;99.90
24686;DHT22;12804;51.176;4.452;2022-09-09T16:01:27;20.70;99.90
24686;DHT22;12804;51.176;4.452;2022-09-09T16:03:53;20.40;99.90
24686;DHT22;12804;51.176;4.452;2022-09-09T16:06:20;20.30;99.90
24686;DHT22;12804;51.176;4.452;2022-09-09T16:08:47;19.90;99.90
24686;DHT22;12804;51.176;4.452;2022-09-09T16:11:20;19.70;99.90
24686;DHT22;12804;51.176;4.452;2022-09-09T16:13:46;19.40;99.90
24686;DHT22;12804;51.176;4.452;2022-09-09T16:16:13;19.30;99.90
24686;DHT22;12804;51.176;4.452;2022-09-09T16:18:40;19.20;99.90
24686;DHT22;12804;51.176;4.452;2022-09-09T16:21:06;19.30;99.90
24686;DHT22;12804;51.176;4.452;2022-09-09T16:23:34;19.40;99.90
24686;DHT22;12804;51.176;4.452;2022-09-09T16:26:00;19.50;99.90
24686;DHT22;12804;51.176;4.452;2022-09-09T16:28:26;19.70;99.90
24686;DHT22;12804;51.176;4.452;2022-09-09T16:30:52;19.50;99.90
24686;DHT22;12804;51.176;4.452;2022-09-09T16:33:18;19.50;99.90
24686;DHT22;12804;51.176;4.452;2022-09-09T16:35:44;19.60;99.90
24686;DHT22;12804;51.176;4.452;2022-09-09T16:38:10;19.60;99.90
24686;DHT22;12804;51.176;4.452;2022-09-09T16:40:36;19.50;99.90
24686;DHT22;12804;51.176;4.452;2022-09-09T16:43:04;19.20;99.90
24686;DHT22;12804;51.176;4.452;2022-09-09T16:45:31;19.20;99.90
24686;DHT22;12804;51.176;4.452;2022-09-09T16:47:58;19.10;99.90
24686;DHT22;12804;51.176;4.452;2022-09-09T16:50:23;19.00;99.90
24686;DHT22;12804;51.176;4.452;2022-09-09T16:52:50;18.90;99.90
24686;DHT22;12804;51.176;4.452;2022-09-09T16:55:16;18.80;99.90
24686;DHT22;12804;51.176;4.452;2022-09-09T16:57:42;18.60;99.90
24686;DHT22;12804;51.176;4.452;2022-09-09T17:00:08;18.40;99.90
24686;DHT22;12804;51.176;4.452;2022-09-09T17:02:34;18.20;99.90
24686;DHT22;12804;51.176;4.452;2022-09-09T17:04:59;18.00;99.90
24686;DHT22;12804;51.176;4.452;2022-09-09T17:07:25;17.80;99.90
24686;DHT22;12804;51.176;4.452;2022-09-09T17:09:50;17.80;99.90
24686;DHT22;12804;51.176;4.452;2022-09-09T17:12:16;17.70;99.90
24686;DHT22;12804;51.176;4.452;2022-09-09T17:14:42;17.60;99.90
24686;DHT22;12804;51.176;4.452;2022-09-09T17:17:08;17.50;99.90
24686;DHT22;12804;51.176;4.452;2022-09-09T17:19:34;17.50;99.90
24686;DHT22;12804;51.176;4.452;2022-09-09T17:21:59;17.60;99.90
24686;DHT22;12804;51.176;4.452;2022-09-09T17:24:26;17.50;99.90
24686;DHT22;12804;51.176;4.452;2022-09-09T17:26:52;17.60;99.90
24686;DHT22;12804;51.176;4.452;2022-09-09T17:29:18;17.60;99.90
24686;DHT22;12804;51.176;4.452;2022-09-09T17:31:44;17.70;99.90
24686;DHT22;12804;51.176;4.452;2022-09-09T17:34:09;17.70;99.90
24686;DHT22;12804;51.176;4.452;2022-09-09T17:36:35;17.80;99.90
24686;DHT22;12804;51.176;4.452;2022-09-09T17:39:03;17.90;99.90
24686;DHT22;12804;51.176;4.452;2022-09-09T17:41:30;17.90;99.90
24686;DHT22;12804;51.176;4.452;2022-09-09T17:43:56;18.00;99.90
24686;DHT22;12804;51.176;4.452;2022-09-09T17:46:32;18.10;99.90
24686;DHT22;12804;51.176;4.452;2022-09-09T17:49:04;18.00;99.90
24686;DHT22;12804;51.176;4.452;2022-09-09T17:51:30;18.00;99.90
24686;DHT22;12804;51.176;4.452;2022-09-09T17:53:57;17.90;99.90
24686;DHT22;12804;51.176;4.452;2022-09-09T17:56:24;17.90;99.90
24686;DHT22;12804;51.176;4.452;2022-09-09T17:58:51;17.80;99.90
24686;DHT22;12804;51.176;4.452;2022-09-09T18:01:21;17.80;99.90
24686;DHT22;12804;51.176;4.452;2022-09-09T18:03:47;17.90;99.90
24686;DHT22;12804;51.176;4.452;2022-09-09T18:06:15;18.00;99.90
24686;DHT22;12804;51.176;4.452;2022-09-09T18:08:41;18.00;99.90
24686;DHT22;12804;51.176;4.452;2022-09-09T18:11:07;18.10;99.90
24686;DHT22;12804;51.176;4.452;2022-09-09T18:13:33;18.00;99.90
24686;DHT22;12804;51.176;4.452;2022-09-09T18:15:59;17.80;99.90